Time;durP1;ratioP1;P1;durP2;ratioP2;P2;SDS_P1;SDS_P2;PMS_P1;PMS_P2;Temp;Humidity;BMP_temperature;BMP_pressure;BME280_temperature;BME280_humidity;BME280_pressure;Samples;Min_cycle;Max_cycle;Signal;HPM_P1;HPM_P2
2021/06/18 00:01:11;;;;;;;;;;;26.20;38.20;;;;;;1573005;75;730;-67
2021/06/18 00:03:13;;;;;;;;;;;26.20;38.10;;;;;;1576939;74;808;-67
2021/06/18 00:05:15;;;;;;;;;;;26.20;38.20;;;;;;1577180;75;725;-65
2021/06/18 00:07:17;;;;;;;;;;;26.20;38.00;;;;;;1574186;74;1161;-65
2021/06/18 00:09:19;;;;;;;;;;;26.10;38.10;;;;;;1576147;74;769;-67
2021/06/18 00:11:20;;;;;;;;;;;26.20;37.90;;;;;;1575897;75;1946;-66
2021/06/18 00:13:22;;;;;;;;;;;26.10;38.10;;;;;;1578110;75;782;-67
2021/06/18 00:15:24;;;;;;;;;;;26.10;38.20;;;;;;1570391;75;776;-66
2021/06/18 00:17:27;;;;;;;;;;;26.20;37.90;;;;;;1571250;74;1141;-67
2021/06/18 00:19:28;;;;;;;;;;;26.20;37.90;;;;;;1569773;75;769;-65
2021/06/18 00:21:30;;;;;;;;;;;26.20;37.80;;;;;;1568135;75;685;-66
2021/06/18 00:23:32;;;;;;;;;;;26.10;37.80;;;;;;1568765;75;726;-67
2021/06/18 00:25:34;;;;;;;;;;;26.20;37.80;;;;;;1574376;74;784;-66
2021/06/18 00:27:36;;;;;;;;;;;26.10;37.80;;;;;;1572844;74;1170;-66
2021/06/18 00:29:38;;;;;;;;;;;26.10;37.90;;;;;;1574347;75;794;-66
2021/06/18 00:31:40;;;;;;;;;;;26.10;37.90;;;;;;1572463;74;1947;-65
2021/06/18 00:33:42;;;;;;;;;;;26.20;37.80;;;;;;1577163;74;743;-65
2021/06/18 00:35:44;;;;;;;;;;;26.20;37.90;;;;;;1562750;74;707;-66
2021/06/18 00:37:46;;;;;;;;;;;26.20;38.10;;;;;;1564333;75;1112;-65
2021/06/18 00:39:47;;;;;;;;;;;26.20;37.90;;;;;;1572780;74;815;-65
2021/06/18 00:41:49;;;;;;;;;;;26.20;37.90;;;;;;1566449;75;836;-66
2021/06/18 00:43:54;;;;;;;;;;;26.20;38.10;;;;;;1575798;75;776;-66
2021/06/18 00:45:56;;;;;;;;;;;26.20;38.00;;;;;;1574142;74;1142;-65
2021/06/18 00:47:59;;;;;;;;;;;26.20;38.10;;;;;;1575000;75;710;-66
2021/06/18 00:50:01;;;;;;;;;;;26.20;38.00;;;;;;1568760;74;771;-65
2021/06/18 00:52:03;;;;;;;;;;;26.20;38.10;;;;;;1576568;75;1943;-62
2021/06/18 00:54:05;;;;;;;;;;;26.30;38.20;;;;;;1571821;75;767;-64
2021/06/18 00:56:07;;;;;;;;;;;26.20;37.90;;;;;;1576527;74;1155;-65
2021/06/18 00:58:09;;;;;;;;;;;26.20;37.90;;;;;;1568390;74;1125;-65
2021/06/18 01:00:11;;;;;;;;;;;26.20;37.90;;;;;;1571900;74;654;-65
2021/06/18 01:02:13;;;;;;;;;;;26.20;37.80;;;;;;1573844;75;694;-66
2021/06/18 01:04:15;;;;;;;;;;;26.20;38.00;;;;;;1576153;74;597;-68
2021/06/18 01:06:24;;;;;;;;;;;26.20;38.00;;;;;;1566288;75;1162;-67
2021/06/18 01:08:44;;;;;;;;;;;26.20;37.80;;;;;;1576973;75;1028;-66
2021/06/18 01:11:04;;;;;;;;;;;26.20;37.80;;;;;;1557479;75;1932;-65
2021/06/18 01:13:24;;;;;;;;;;;26.10;37.70;;;;;;1578699;74;827;-65
2021/06/18 01:15:33;;;;;;;;;;;26.20;37.80;;;;;;1573888;75;809;-66
2021/06/18 01:17:49;;;;;;;;;;;26.10;37.80;;;;;;1569749;74;2062;-65
2021/06/18 01:19:52;;;;;;;;;;;26.10;37.80;;;;;;1575046;74;766;-65
2021/06/18 01:21:56;;;;;;;;;;;26.20;37.80;;;;;;1577302;74;1822;-65
2021/06/18 01:23:59;;;;;;;;;;;26.10;37.80;;;;;;1572178;75;1790;-66
2021/06/18 01:26:05;;;;;;;;;;;26.20;38.30;;;;;;1576903;75;1188;-66
2021/06/18 01:28:14;;;;;;;;;;;26.20;37.90;;;;;;1569873;75;732;-67
2021/06/18 01:30:19;;;;;;;;;;;26.10;37.80;;;;;;1576164;74;707;-65
2021/06/18 01:32:26;;;;;;;;;;;26.10;37.90;;;;;;1571603;75;1906;-66
2021/06/18 01:34:29;;;;;;;;;;;26.10;37.90;;;;;;1574506;74;1612;-66
2021/06/18 01:36:31;;;;;;;;;;;26.20;37.90;;;;;;1576342;74;1192;-67
2021/06/18 01:38:34;;;;;;;;;;;26.10;37.90;;;;;;1574086;75;734;-66
2021/06/18 01:40:36;;;;;;;;;;;26.10;38.00;;;;;;1576745;74;678;-66
2021/06/18 01:42:39;;;;;;;;;;;26.20;38.00;;;;;;1575827;74;705;-66
2021/06/18 01:44:41;;;;;;;;;;;26.20;38.00;;;;;;1573770;75;720;-67
2021/06/18 01:46:43;;;;;;;;;;;26.20;38.00;;;;;;1576960;75;1148;-66
2021/06/18 01:48:47;;;;;;;;;;;26.20;38.00;;;;;;1569970;75;821;-67
2021/06/18 01:50:49;;;;;;;;;;;26.10;38.10;;;;;;1570046;74;1916;-66
2021/06/18 01:52:52;;;;;;;;;;;26.10;38.10;;;;;;1579146;74;736;-66
2021/06/18 01:54:53;;;;;;;;;;;26.10;38.10;;;;;;1577220;75;737;-66
2021/06/18 01:56:56;;;;;;;;;;;26.10;38.10;;;;;;1572850;74;1140;-66
2021/06/18 01:58:58;;;;;;;;;;;26.10;38.10;;;;;;1579457;75;808;-67
2021/06/18 02:01:00;;;;;;;;;;;26.10;38.20;;;;;;1568082;74;743;-68
2021/06/18 02:03:03;;;;;;;;;;;26.10;38.10;;;;;;1574661;75;818;-66
2021/06/18 02:05:05;;;;;;;;;;;26.10;38.40;;;;;;1577221;74;803;-66
2021/06/18 02:07:07;;;;;;;;;;;26.10;38.30;;;;;;1571589;75;1121;-66
2021/06/18 02:09:09;;;;;;;;;;;26.00;38.30;;;;;;1577578;74;692;-66
2021/06/18 02:11:11;;;;;;;;;;;26.00;38.40;;;;;;1572488;74;1935;-66
2021/06/18 02:13:13;;;;;;;;;;;26.10;38.30;;;;;;1565120;74;666;-66
2021/06/18 02:15:17;;;;;;;;;;;26.10;38.40;;;;;;1557079;74;829;-64
2021/06/18 02:17:19;;;;;;;;;;;26.00;38.60;;;;;;1571005;75;1153;-66
2021/06/18 02:19:21;;;;;;;;;;;26.10;38.40;;;;;;1576968;74;732;-66
2021/06/18 02:21:24;;;;;;;;;;;26.10;38.50;;;;;;1580253;75;760;-66
2021/06/18 02:23:27;;;;;;;;;;;26.00;38.40;;;;;;1576579;74;746;-67
2021/06/18 02:25:30;;;;;;;;;;;26.00;38.40;;;;;;1577494;74;803;-67
2021/06/18 02:27:32;;;;;;;;;;;26.00;38.40;;;;;;1571335;75;1151;-67
2021/06/18 02:29:34;;;;;;;;;;;26.00;38.40;;;;;;1577522;75;882;-66
2021/06/18 02:31:37;;;;;;;;;;;26.00;38.40;;;;;;1570330;74;1942;-66
2021/06/18 02:33:39;;;;;;;;;;;26.00;38.40;;;;;;1572321;74;730;-66
2021/06/18 02:35:40;;;;;;;;;;;26.00;38.40;;;;;;1568029;75;764;-67
2021/06/18 02:37:42;;;;;;;;;;;26.10;38.40;;;;;;1577637;74;1100;-68
2021/06/18 02:39:44;;;;;;;;;;;26.00;38.40;;;;;;1577718;75;729;-66
2021/06/18 02:41:46;;;;;;;;;;;26.00;38.60;;;;;;1576951;74;758;-65
2021/06/18 02:43:48;;;;;;;;;;;25.90;38.10;;;;;;1574615;75;759;-66
2021/06/18 02:45:52;;;;;;;;;;;26.00;38.70;;;;;;1571867;75;719;-66
2021/06/18 02:47:56;;;;;;;;;;;26.00;38.70;;;;;;1576606;75;742;-63
2021/06/18 02:49:59;;;;;;;;;;;26.00;38.60;;;;;;1577305;75;776;-66
2021/06/18 02:52:02;;;;;;;;;;;26.10;38.60;;;;;;1577991;75;1910;-66
2021/06/18 02:54:06;;;;;;;;;;;26.10;38.60;;;;;;1575390;74;1033;-66
2021/06/18 02:56:09;;;;;;;;;;;26.00;38.60;;;;;;1576230;74;1977;-66
2021/06/18 02:58:13;;;;;;;;;;;26.00;38.60;;;;;;1576271;74;877;-65
2021/06/18 03:00:15;;;;;;;;;;;26.00;38.60;;;;;;1577621;74;847;-66
2021/06/18 03:02:17;;;;;;;;;;;26.10;38.70;;;;;;1562719;75;765;-66
2021/06/18 03:04:23;;;;;;;;;;;26.10;38.70;;;;;;1577232;74;806;-66
2021/06/18 03:06:25;;;;;;;;;;;26.00;38.70;;;;;;1565308;74;1114;-66
2021/06/18 03:08:29;;;;;;;;;;;26.00;38.70;;;;;;1577428;74;792;-66
2021/06/18 03:10:37;;;;;;;;;;;26.00;39.20;;;;;;1570707;74;814;-65
2021/06/18 03:12:40;;;;;;;;;;;26.10;39.40;;;;;;1559309;74;1943;-66
2021/06/18 03:14:43;;;;;;;;;;;26.10;39.30;;;;;;1568552;75;783;-66
2021/06/18 03:16:46;;;;;;;;;;;26.10;39.10;;;;;;1570272;74;1155;-66
2021/06/18 03:18:48;;;;;;;;;;;26.10;39.00;;;;;;1565539;75;941;-66
2021/06/18 03:20:50;;;;;;;;;;;26.10;39.00;;;;;;1576822;74;791;-66
2021/06/18 03:22:54;;;;;;;;;;;26.10;38.90;;;;;;1578491;75;687;-66
2021/06/18 03:24:56;;;;;;;;;;;26.10;38.90;;;;;;1576032;75;1781;-66
2021/06/18 03:26:58;;;;;;;;;;;26.20;39.10;;;;;;1579067;74;1140;-66
2021/06/18 03:28:59;;;;;;;;;;;26.10;38.80;;;;;;1571372;74;837;-67
2021/06/18 03:31:03;;;;;;;;;;;26.20;38.90;;;;;;1568275;75;807;-66
2021/06/18 03:33:05;;;;;;;;;;;26.10;38.90;;;;;;1572142;74;2028;-66
2021/06/18 03:35:07;;;;;;;;;;;26.10;38.90;;;;;;1576141;74;729;-66
2021/06/18 03:37:09;;;;;;;;;;;26.10;38.80;;;;;;1576566;74;1143;-66
2021/06/18 03:39:11;;;;;;;;;;;26.10;38.80;;;;;;1576894;74;804;-65
2021/06/18 03:41:13;;;;;;;;;;;26.10;38.90;;;;;;1577574;74;647;-64
2021/06/18 03:43:15;;;;;;;;;;;26.10;38.90;;;;;;1577659;75;736;-66
2021/06/18 03:45:17;;;;;;;;;;;26.10;38.90;;;;;;1573253;75;728;-66
2021/06/18 03:47:19;;;;;;;;;;;26.10;38.90;;;;;;1566738;74;1183;-66
2021/06/18 03:49:24;;;;;;;;;;;26.10;38.90;;;;;;1571251;74;758;-68
2021/06/18 03:51:24;;;;;;;;;;;26.10;38.90;;;;;;1574655;75;1788;-66
2021/06/18 03:53:26;;;;;;;;;;;26.10;38.90;;;;;;1570961;74;1945;-66
2021/06/18 03:55:28;;;;;;;;;;;26.20;38.90;;;;;;1575419;75;667;-66
2021/06/18 03:57:30;;;;;;;;;;;26.10;38.90;;;;;;1566021;74;1135;-65
2021/06/18 03:59:32;;;;;;;;;;;26.10;39.00;;;;;;1569177;74;1005;-65
2021/06/18 04:01:35;;;;;;;;;;;26.10;39.00;;;;;;1564746;75;1076;-65
2021/06/18 04:03:37;;;;;;;;;;;26.10;39.00;;;;;;1543515;75;659;-65
2021/06/18 04:05:40;;;;;;;;;;;26.10;39.00;;;;;;1566989;74;802;-65
2021/06/18 04:07:47;;;;;;;;;;;26.00;39.00;;;;;;1576431;74;1167;-66
2021/06/18 04:09:49;;;;;;;;;;;26.10;39.00;;;;;;1569910;74;976;-65
2021/06/18 04:11:51;;;;;;;;;;;26.10;39.10;;;;;;1566471;74;1931;-68
2021/06/18 04:13:53;;;;;;;;;;;26.10;39.10;;;;;;1579611;74;688;-66
2021/06/18 04:15:55;;;;;;;;;;;26.10;39.10;;;;;;1576390;75;1168;-66
2021/06/18 04:17:56;;;;;;;;;;;26.10;39.10;;;;;;1570881;75;803;-67
2021/06/18 04:19:58;;;;;;;;;;;26.10;39.10;;;;;;1560590;75;753;-65
2021/06/18 04:22:02;;;;;;;;;;;26.10;39.20;;;;;;1568576;74;839;-65
2021/06/18 04:24:04;;;;;;;;;;;26.10;39.20;;;;;;1568596;75;1811;-65
2021/06/18 04:26:06;;;;;;;;;;;26.10;39.20;;;;;;1576843;74;1147;-65
2021/06/18 04:28:08;;;;;;;;;;;26.00;39.20;;;;;;1572960;75;759;-64
2021/06/18 04:30:11;;;;;;;;;;;26.10;39.20;;;;;;1576205;75;938;-66
2021/06/18 04:32:12;;;;;;;;;;;26.10;39.30;;;;;;1572749;75;1932;-66
2021/06/18 04:34:14;;;;;;;;;;;26.10;39.30;;;;;;1565027;74;730;-65
2021/06/18 04:36:16;;;;;;;;;;;26.00;39.40;;;;;;1565436;75;1129;-67
2021/06/18 04:38:18;;;;;;;;;;;26.10;39.40;;;;;;1562939;75;788;-66
2021/06/18 04:40:20;;;;;;;;;;;26.10;39.40;;;;;;1564228;75;798;-67
2021/06/18 04:42:22;;;;;;;;;;;26.10;39.40;;;;;;1570998;74;763;-68
2021/06/18 04:44:24;;;;;;;;;;;26.20;39.50;;;;;;1576653;75;800;-67
2021/06/18 04:46:26;;;;;;;;;;;26.00;39.50;;;;;;1576298;75;1148;-67
2021/06/18 04:48:28;;;;;;;;;;;26.10;39.50;;;;;;1575937;74;740;-66
2021/06/18 04:50:30;;;;;;;;;;;26.20;39.60;;;;;;1579502;75;671;-66
2021/06/18 04:52:32;;;;;;;;;;;26.00;39.70;;;;;;1578045;74;1953;-67
2021/06/18 04:54:34;;;;;;;;;;;26.10;39.80;;;;;;1569115;75;826;-66
2021/06/18 04:56:38;;;;;;;;;;;26.10;39.80;;;;;;1575591;72;2167;-68
2021/06/18 04:58:40;;;;;;;;;;;26.10;39.90;;;;;;1582762;73;1110;-67
2021/06/18 05:00:42;;;;;;;;;;;26.10;39.90;;;;;;1584350;73;677;-68
2021/06/18 05:02:44;;;;;;;;;;;26.10;39.80;;;;;;1588823;73;759;-69
2021/06/18 05:04:45;;;;;;;;;;;26.10;39.90;;;;;;1569862;73;728;-69
2021/06/18 05:06:48;;;;;;;;;;;26.10;39.90;;;;;;1589563;73;1199;-68
2021/06/18 05:08:49;;;;;;;;;;;26.10;40.00;;;;;;1598723;74;719;-69
2021/06/18 05:10:51;;;;;;;;;;;26.20;39.90;;;;;;1599284;74;789;-69
2021/06/18 05:12:53;;;;;;;;;;;26.20;39.80;;;;;;1586447;74;1924;-68
2021/06/18 05:14:55;;;;;;;;;;;26.20;39.80;;;;;;1587705;74;709;-68
2021/06/18 05:16:57;;;;;;;;;;;26.20;39.80;;;;;;1592280;74;1108;-68
2021/06/18 05:18:59;;;;;;;;;;;26.20;39.90;;;;;;1590075;74;728;-68
2021/06/18 05:21:01;;;;;;;;;;;26.20;39.90;;;;;;1590940;74;760;-67
2021/06/18 05:23:03;;;;;;;;;;;26.10;40.00;;;;;;1587373;74;794;-69
2021/06/18 05:25:05;;;;;;;;;;;26.20;40.00;;;;;;1585672;74;790;-67
2021/06/18 05:27:07;;;;;;;;;;;26.20;40.00;;;;;;1586416;74;1073;-71
2021/06/18 05:29:09;;;;;;;;;;;26.20;40.00;;;;;;1583693;74;778;-70
2021/06/18 05:31:11;;;;;;;;;;;26.20;40.10;;;;;;1583998;74;739;-67
2021/06/18 05:33:12;;;;;;;;;;;26.20;40.60;;;;;;1589777;74;1937;-69
2021/06/18 05:35:14;;;;;;;;;;;26.00;40.50;;;;;;1599170;74;783;-67
2021/06/18 05:37:16;;;;;;;;;;;26.00;40.80;;;;;;1591196;74;1139;-65
2021/06/18 05:39:18;;;;;;;;;;;26.00;40.90;;;;;;1581578;74;713;-69
2021/06/18 05:41:20;;;;;;;;;;;26.10;40.70;;;;;;1597208;74;815;-69
2021/06/18 05:43:22;;;;;;;;;;;26.00;40.80;;;;;;1601645;74;731;-69
2021/06/18 05:45:24;;;;;;;;;;;26.10;40.70;;;;;;1599639;74;732;-70
2021/06/18 05:47:27;;;;;;;;;;;26.10;40.70;;;;;;1598417;73;1233;-68
2021/06/18 05:49:28;;;;;;;;;;;26.10;40.70;;;;;;1598096;73;793;-69
2021/06/18 05:51:30;;;;;;;;;;;26.10;40.70;;;;;;1597604;73;884;-67
2021/06/18 05:53:32;;;;;;;;;;;26.10;40.60;;;;;;1596065;74;1935;-70
2021/06/18 05:55:34;;;;;;;;;;;26.10;40.70;;;;;;1589808;74;807;-67
2021/06/18 05:57:38;;;;;;;;;;;26.10;40.80;;;;;;1597980;74;1132;-68
2021/06/18 05:59:39;;;;;;;;;;;26.10;40.70;;;;;;1596636;74;831;-66
2021/06/18 06:01:41;;;;;;;;;;;26.10;40.70;;;;;;1598364;74;838;-69
2021/06/18 06:03:43;;;;;;;;;;;26.10;41.00;;;;;;1602328;74;657;-74
2021/06/18 06:05:45;;;;;;;;;;;26.10;41.10;;;;;;1600296;74;737;-78
2021/06/18 06:07:47;;;;;;;;;;;26.10;41.60;;;;;;1590420;74;1156;-71
2021/06/18 06:09:49;;;;;;;;;;;26.00;41.40;;;;;;1591277;74;705;-70
2021/06/18 06:11:51;;;;;;;;;;;26.00;41.40;;;;;;1584537;74;771;-70
2021/06/18 06:14:04;;;;;;;;;;;26.10;41.30;;;;;;1592821;74;1948;-72
2021/06/18 06:16:02;;;;;;;;;;;26.00;41.30;;;;;;1582609;74;1581;-71
2021/06/18 06:18:04;;;;;;;;;;;26.10;41.50;;;;;;1587261;74;1054;-72
2021/06/18 06:20:07;;;;;;;;;;;26.10;41.50;;;;;;1588382;73;747;-71
2021/06/18 06:22:09;;;;;;;;;;;26.10;41.50;;;;;;1594014;74;820;-72
2021/06/18 06:24:11;;;;;;;;;;;26.20;41.50;;;;;;1594911;74;791;-72
2021/06/18 06:26:13;;;;;;;;;;;26.30;41.30;;;;;;1588586;74;1100;-72
2021/06/18 06:28:15;;;;;;;;;;;26.40;41.20;;;;;;1584541;74;736;-71
2021/06/18 06:30:17;;;;;;;;;;;26.40;41.60;;;;;;1585470;74;816;-71
2021/06/18 06:32:19;;;;;;;;;;;26.50;41.30;;;;;;1591977;74;730;-71
2021/06/18 06:34:21;;;;;;;;;;;26.60;41.30;;;;;;1587766;74;1957;-72
2021/06/18 06:36:23;;;;;;;;;;;26.70;41.10;;;;;;1588779;74;1167;-73
2021/06/18 06:38:25;;;;;;;;;;;26.70;41.20;;;;;;1588329;74;653;-76
2021/06/18 06:40:27;;;;;;;;;;;26.70;40.80;;;;;;1586888;74;802;-72
2021/06/18 06:42:29;;;;;;;;;;;26.70;41.00;;;;;;1586751;74;770;-71
2021/06/18 06:44:31;;;;;;;;;;;26.70;40.80;;;;;;1587111;74;784;-70
2021/06/18 06:46:33;;;;;;;;;;;26.70;40.90;;;;;;1588410;73;1197;-70
2021/06/18 06:48:35;;;;;;;;;;;26.80;40.70;;;;;;1596439;73;726;-72
2021/06/18 06:50:37;;;;;;;;;;;26.90;40.70;;;;;;1589691;74;805;-73
2021/06/18 06:52:39;;;;;;;;;;;27.00;41.00;;;;;;1593019;74;1942;-71
2021/06/18 06:54:41;;;;;;;;;;;26.90;40.30;;;;;;1599439;74;791;-72
2021/06/18 06:56:43;;;;;;;;;;;26.90;40.30;;;;;;1588189;74;1128;-72
2021/06/18 06:58:45;;;;;;;;;;;26.90;40.00;;;;;;1591910;74;790;-71
2021/06/18 07:00:46;;;;;;;;;;;27.00;41.00;;;;;;1596009;74;772;-70
2021/06/18 07:02:48;;;;;;;;;;;27.00;41.10;;;;;;1594013;74;740;-71
2021/06/18 07:04:50;;;;;;;;;;;27.00;41.00;;;;;;1593084;74;729;-71
2021/06/18 07:06:52;;;;;;;;;;;26.90;40.00;;;;;;1596795;74;1147;-72
2021/06/18 07:08:54;;;;;;;;;;;26.90;40.10;;;;;;1587735;74;775;-71
2021/06/18 07:10:56;;;;;;;;;;;27.00;40.70;;;;;;1590423;74;753;-71
2021/06/18 07:12:58;;;;;;;;;;;27.00;40.50;;;;;;1581005;74;1934;-72
2021/06/18 07:14:59;;;;;;;;;;;27.10;40.50;;;;;;1592110;74;799;-71
2021/06/18 07:17:01;;;;;;;;;;;27.00;40.40;;;;;;1593881;74;1124;-71
2021/06/18 07:19:03;;;;;;;;;;;27.10;40.40;;;;;;1585957;74;810;-71
2021/06/18 07:21:05;;;;;;;;;;;27.00;40.10;;;;;;1587681;74;727;-71
2021/06/18 07:23:08;;;;;;;;;;;27.00;39.90;;;;;;1590415;74;733;-72
2021/06/18 07:25:11;;;;;;;;;;;27.10;40.00;;;;;;1587172;74;619;-71
2021/06/18 07:27:13;;;;;;;;;;;27.10;40.00;;;;;;1584134;74;1121;-71
2021/06/18 07:29:15;;;;;;;;;;;27.10;39.90;;;;;;1584365;74;740;-69
2021/06/18 07:31:17;;;;;;;;;;;27.10;40.00;;;;;;1582774;74;762;-72
2021/06/18 07:33:19;;;;;;;;;;;27.10;39.80;;;;;;1590154;74;1936;-71
2021/06/18 07:35:21;;;;;;;;;;;27.10;39.90;;;;;;1585573;74;732;-71
2021/06/18 07:37:23;;;;;;;;;;;27.10;40.20;;;;;;1584465;74;1108;-72
2021/06/18 07:39:25;;;;;;;;;;;27.10;40.50;;;;;;1581991;74;788;-72
2021/06/18 07:41:27;;;;;;;;;;;27.10;40.00;;;;;;1580753;74;736;-71
2021/06/18 07:43:29;;;;;;;;;;;27.20;40.20;;;;;;1584835;74;896;-71
2021/06/18 07:45:30;;;;;;;;;;;27.10;40.10;;;;;;1586514;74;757;-70
2021/06/18 07:47:32;;;;;;;;;;;27.10;40.70;;;;;;1585959;73;1300;-72
2021/06/18 07:49:34;;;;;;;;;;;27.10;40.70;;;;;;1583519;73;713;-69
2021/06/18 07:51:36;;;;;;;;;;;27.10;40.40;;;;;;1582256;74;787;-70
2021/06/18 07:53:38;;;;;;;;;;;27.10;40.40;;;;;;1584360;74;1921;-71
2021/06/18 07:55:41;;;;;;;;;;;27.20;40.30;;;;;;1584129;74;596;-72
2021/06/18 07:57:43;;;;;;;;;;;27.10;40.50;;;;;;1584054;74;1140;-71
2021/06/18 07:59:45;;;;;;;;;;;27.10;40.40;;;;;;1585808;74;777;-71
2021/06/18 08:01:47;;;;;;;;;;;27.30;40.40;;;;;;1580522;74;915;-72
2021/06/18 08:03:48;;;;;;;;;;;27.30;40.30;;;;;;1580581;74;733;-71
2021/06/18 08:05:50;;;;;;;;;;;27.30;39.90;;;;;;1578753;74;806;-72
2021/06/18 08:07:52;;;;;;;;;;;27.30;39.80;;;;;;1580323;74;1100;-69
2021/06/18 08:09:54;;;;;;;;;;;27.30;40.10;;;;;;1583393;74;759;-72
2021/06/18 08:11:56;;;;;;;;;;;27.30;40.20;;;;;;1587106;74;679;-72
2021/06/18 08:13:58;;;;;;;;;;;27.40;40.10;;;;;;1585240;74;1943;-71
2021/06/18 08:16:00;;;;;;;;;;;27.40;40.20;;;;;;1584200;74;791;-72
2021/06/18 08:18:02;;;;;;;;;;;27.30;40.20;;;;;;1581252;74;1148;-73
2021/06/18 08:20:04;;;;;;;;;;;27.30;40.10;;;;;;1585524;74;781;-73
2021/06/18 08:22:06;;;;;;;;;;;27.30;40.00;;;;;;1579096;74;868;-73
2021/06/18 08:24:08;;;;;;;;;;;27.40;39.90;;;;;;1582139;74;793;-73
2021/06/18 08:26:10;;;;;;;;;;;27.40;39.90;;;;;;1579476;74;754;-74
2021/06/18 08:28:11;;;;;;;;;;;27.40;39.90;;;;;;1582397;74;756;-70
2021/06/18 08:30:15;;;;;;;;;;;27.40;40.10;;;;;;1580487;74;845;-73
2021/06/18 08:32:16;;;;;;;;;;;27.30;40.20;;;;;;1577497;74;789;-72
2021/06/18 08:34:18;;;;;;;;;;;27.40;40.20;;;;;;1581115;74;1948;-73
2021/06/18 08:36:20;;;;;;;;;;;27.40;40.20;;;;;;1583463;74;1168;-74
2021/06/18 08:38:22;;;;;;;;;;;27.40;40.00;;;;;;1580779;74;781;-72
2021/06/18 08:40:24;;;;;;;;;;;27.50;40.20;;;;;;1581381;74;944;-72
2021/06/18 08:42:26;;;;;;;;;;;27.40;40.30;;;;;;1583992;74;762;-72
2021/06/18 08:44:28;;;;;;;;;;;27.40;40.40;;;;;;1593480;74;771;-75
2021/06/18 08:46:29;;;;;;;;;;;27.30;40.30;;;;;;1598623;73;1131;-73
2021/06/18 08:48:32;;;;;;;;;;;27.40;40.20;;;;;;1596699;73;687;-72
2021/06/18 08:50:34;;;;;;;;;;;27.40;40.10;;;;;;1594044;73;736;-73
2021/06/18 08:52:40;;;;;;;;;;;27.30;40.20;;;;;;1593238;74;751;-73
2021/06/18 08:54:42;;;;;;;;;;;27.30;40.20;;;;;;1593049;74;1938;-72
2021/06/18 08:56:44;;;;;;;;;;;27.40;40.10;;;;;;1594710;74;1071;-72
2021/06/18 08:58:46;;;;;;;;;;;27.40;40.00;;;;;;1595535;74;741;-71
2021/06/18 09:00:48;;;;;;;;;;;27.40;40.50;;;;;;1589356;74;749;-72
2021/06/18 09:02:50;;;;;;;;;;;27.40;40.30;;;;;;1596469;74;723;-70
2021/06/18 09:05:13;;;;;;;;;;;27.40;40.40;;;;;;1594506;74;751;-68
2021/06/18 09:07:14;;;;;;;;;;;27.40;39.60;;;;;;1581756;74;1152;-69
2021/06/18 09:09:21;;;;;;;;;;;27.40;39.70;;;;;;1579807;74;746;-70
2021/06/18 09:11:36;;;;;;;;;;;27.40;39.70;;;;;;1582838;74;780;-70
2021/06/18 09:13:39;;;;;;;;;;;27.50;39.80;;;;;;1589673;74;1955;-68
2021/06/18 09:15:51;;;;;;;;;;;27.40;40.00;;;;;;1585555;74;684;-69
2021/06/18 09:17:53;;;;;;;;;;;27.40;39.80;;;;;;1585523;74;1799;-69
2021/06/18 09:19:56;;;;;;;;;;;27.40;39.70;;;;;;1578421;74;750;-68
2021/06/18 09:21:59;;;;;;;;;;;27.40;39.80;;;;;;1584578;74;795;-69
2021/06/18 09:24:01;;;;;;;;;;;27.40;39.70;;;;;;1579670;74;716;-68
2021/06/18 09:26:04;;;;;;;;;;;27.40;39.80;;;;;;1580973;74;724;-68
2021/06/18 09:28:06;;;;;;;;;;;27.40;40.20;;;;;;1578413;74;1448;-68
2021/06/18 09:30:28;;;;;;;;;;;27.30;41.00;;;;;;1578854;74;773;-68
2021/06/18 09:32:30;;;;;;;;;;;27.30;41.40;;;;;;1583039;74;659;-70
2021/06/18 09:36:48;;;;;;;;;;;27.30;40.80;;;;;;1583052;74;1202;-70
2021/06/18 09:38:53;;;;;;;;;;;27.40;40.60;;;;;;1585358;74;727;-68
2021/06/18 09:40:54;;;;;;;;;;;27.40;40.60;;;;;;1598027;74;1788;-69
2021/06/18 09:42:57;;;;;;;;;;;27.40;40.70;;;;;;1600020;73;779;-70
2021/06/18 09:45:02;;;;;;;;;;;27.40;41.00;;;;;;1598782;74;774;-67
2021/06/18 09:47:06;;;;;;;;;;;27.30;40.70;;;;;;1595502;73;1106;-65
2021/06/18 09:49:07;;;;;;;;;;;27.30;41.00;;;;;;1597019;74;1745;-68
2021/06/18 09:51:09;;;;;;;;;;;27.30;40.50;;;;;;1597808;74;786;-71
2021/06/18 09:53:15;;;;;;;;;;;27.30;40.50;;;;;;1596888;74;783;-68
2021/06/18 09:55:23;;;;;;;;;;;27.40;40.30;;;;;;1587476;74;1934;-70
2021/06/18 09:57:27;;;;;;;;;;;27.40;40.30;;;;;;1588333;74;1159;-70
2021/06/18 09:59:28;;;;;;;;;;;27.40;40.50;;;;;;1582166;74;1661;-69
2021/06/18 10:01:34;;;;;;;;;;;27.40;40.70;;;;;;1583906;74;763;-72
2021/06/18 10:03:34;;;;;;;;;;;27.40;41.00;;;;;;1587933;73;1688;-70
2021/06/18 10:05:37;;;;;;;;;;;27.30;40.80;;;;;;1592535;74;707;-70
2021/06/18 10:07:39;;;;;;;;;;;27.40;41.00;;;;;;1592871;74;1102;-69
2021/06/18 10:09:41;;;;;;;;;;;27.20;41.00;;;;;;1589247;74;719;-69
2021/06/18 10:11:45;;;;;;;;;;;27.30;40.90;;;;;;1591615;74;760;-70
2021/06/18 10:13:46;;;;;;;;;;;27.30;41.20;;;;;;1598121;74;1879;-70
2021/06/18 10:15:48;;;;;;;;;;;27.30;41.00;;;;;;1589442;74;1950;-69
2021/06/18 10:17:51;;;;;;;;;;;27.20;41.00;;;;;;1596660;74;1147;-69
2021/06/18 10:19:53;;;;;;;;;;;27.30;41.70;;;;;;1598738;74;694;-70
2021/06/18 10:21:56;;;;;;;;;;;27.20;41.50;;;;;;1597321;74;807;-73
2021/06/18 10:23:59;;;;;;;;;;;27.20;41.60;;;;;;1596442;74;1646;-69
2021/06/18 10:26:02;;;;;;;;;;;27.20;41.90;;;;;;1593822;74;942;-70
2021/06/18 10:28:09;;;;;;;;;;;27.30;41.50;;;;;;1600622;74;1154;-68
2021/06/18 10:30:26;;;;;;;;;;;27.20;41.50;;;;;;1591987;73;1501;-70
2021/06/18 10:32:30;;;;;;;;;;;27.30;41.40;;;;;;1596506;74;825;-69
2021/06/18 10:34:39;;;;;;;;;;;27.30;40.80;;;;;;1596289;74;1973;-70
2021/06/18 10:36:41;;;;;;;;;;;27.20;41.00;;;;;;1593103;74;1127;-68
2021/06/18 10:38:44;;;;;;;;;;;27.20;40.70;;;;;;1578904;75;731;-69
2021/06/18 10:40:46;;;;;;;;;;;27.10;41.00;;;;;;1583410;74;821;-68
2021/06/18 10:43:05;;;;;;;;;;;27.20;40.90;;;;;;1587194;74;725;-68
2021/06/18 10:45:07;;;;;;;;;;;27.10;40.60;;;;;;1504103;77;1222;-67
2021/06/18 10:47:30;;;;;;;;;;;27.10;40.10;;;;;;1540838;74;1187;-68
2021/06/18 10:49:39;;;;;;;;;;;27.10;40.20;;;;;;1584093;73;1686;-67
2021/06/18 10:51:48;;;;;;;;;;;27.10;40.40;;;;;;1584418;74;786;-70
2021/06/18 10:53:51;;;;;;;;;;;27.30;40.20;;;;;;1578586;74;662;-68
2021/06/18 10:55:53;;;;;;;;;;;27.30;40.10;;;;;;1590340;74;1900;-70
2021/06/18 10:57:55;;;;;;;;;;;27.30;40.30;;;;;;1552497;72;218228;-69
2021/06/18 10:59:58;;;;;;;;;;;27.30;40.20;;;;;;1531689;76;720;-71
2021/06/18 11:02:01;;;;;;;;;;;27.30;40.10;;;;;;1542711;76;717;-70
2021/06/18 11:04:03;;;;;;;;;;;27.20;39.60;;;;;;1544010;76;1233;-71
2021/06/18 11:06:07;;;;;;;;;;;27.20;39.80;;;;;;1566744;75;704;-71
2021/06/18 11:08:16;;;;;;;;;;;27.20;39.80;;;;;;1573724;74;1496;-70
2021/06/18 11:10:30;;;;;;;;;;;27.30;39.80;;;;;;1580110;74;741;-71
2021/06/18 11:12:33;;;;;;;;;;;27.20;40.00;;;;;;1565126;74;727;-70
2021/06/18 11:14:38;;;;;;;;;;;27.20;40.00;;;;;;1567445;74;1940;-70
2021/06/18 11:16:40;;;;;;;;;;;27.20;39.70;;;;;;1562485;74;1425;-70
2021/06/18 11:18:42;;;;;;;;;;;27.20;39.50;;;;;;1558971;74;786;-70
2021/06/18 11:20:49;;;;;;;;;;;27.20;39.70;;;;;;1557387;74;744;-70
2021/06/18 11:22:56;;;;;;;;;;;27.20;39.70;;;;;;1562483;74;729;-71
2021/06/18 11:24:58;;;;;;;;;;;27.10;39.70;;;;;;1555165;75;1708;-70
2021/06/18 11:27:18;;;;;;;;;;;27.20;39.70;;;;;;1562619;74;760;-71
2021/06/18 11:29:21;;;;;;;;;;;27.20;39.80;;;;;;1561240;75;762;-68
2021/06/18 11:31:25;;;;;;;;;;;27.10;39.50;;;;;;1561192;75;1528;-69
2021/06/18 11:33:47;;;;;;;;;;;27.10;39.70;;;;;;1554932;74;1768;-69
2021/06/18 11:35:49;;;;;;;;;;;27.10;39.80;;;;;;1563222;74;1930;-71
2021/06/18 11:37:51;;;;;;;;;;;27.20;39.80;;;;;;1568446;74;734;-71
2021/06/18 11:39:52;;;;;;;;;;;27.20;39.90;;;;;;1563916;74;731;-71
2021/06/18 11:41:58;;;;;;;;;;;27.20;39.50;;;;;;1557472;74;734;-71
2021/06/18 11:44:01;;;;;;;;;;;27.20;39.70;;;;;;1563188;74;1249;-71
2021/06/18 11:46:03;;;;;;;;;;;27.10;39.40;;;;;;1556813;74;655;-71
2021/06/18 11:48:06;;;;;;;;;;;27.10;39.40;;;;;;1562874;74;824;-71
2021/06/18 11:50:08;;;;;;;;;;;27.10;39.60;;;;;;1551558;74;944;-70
2021/06/18 11:52:10;;;;;;;;;;;27.10;39.90;;;;;;1559954;74;660;-70
2021/06/18 11:54:29;;;;;;;;;;;27.10;40.00;;;;;;1558206;74;1090;-71
2021/06/18 11:56:30;;;;;;;;;;;27.10;40.30;;;;;;1558285;74;1561;-71
2021/06/18 11:58:32;;;;;;;;;;;27.10;39.90;;;;;;1559320;74;1793;-71
2021/06/18 12:00:35;;;;;;;;;;;27.10;40.00;;;;;;1557831;74;699;-72
2021/06/18 12:02:37;;;;;;;;;;;27.10;39.80;;;;;;1557432;74;776;-72
2021/06/18 12:04:39;;;;;;;;;;;27.10;39.90;;;;;;1561257;74;1164;-74
2021/06/18 12:06:40;;;;;;;;;;;27.10;39.70;;;;;;1562218;74;724;-74
2021/06/18 12:09:01;;;;;;;;;;;27.10;39.80;;;;;;1566019;74;729;-75
2021/06/18 12:11:04;;;;;;;;;;;27.20;39.60;;;;;;1561280;74;716;-77
2021/06/18 12:13:06;;;;;;;;;;;27.20;39.70;;;;;;1561942;74;1098;-75
2021/06/18 12:15:10;;;;;;;;;;;27.20;39.70;;;;;;1563668;74;1938;-76
2021/06/18 12:17:12;;;;;;;;;;;27.40;39.50;;;;;;1563398;74;2019;-76